createdAt,value
2018-12-11T00:01:27.614Z,4.30
2018-12-11T00:03:56.582Z,4.30
2018-12-11T00:06:24.882Z,4.30
2018-12-11T00:08:53.106Z,4.40
2018-12-11T00:11:21.304Z,4.40
2018-12-11T00:13:49.527Z,4.30
2018-12-11T00:16:17.734Z,4.30
2018-12-11T00:18:46.021Z,4.30
2018-12-11T00:21:14.262Z,4.30
2018-12-11T00:23:42.459Z,4.40
2018-12-11T00:26:10.726Z,4.30
2018-12-11T00:28:38.927Z,4.20
2018-12-11T00:31:07.174Z,4.30
2018-12-11T00:33:35.382Z,4.30
2018-12-11T00:36:03.648Z,4.40
2018-12-11T00:38:31.895Z,4.30
2018-12-11T00:41:00.158Z,4.30
2018-12-11T00:43:29.152Z,4.30
2018-12-11T00:45:57.359Z,4.20
2018-12-11T00:48:25.630Z,4.20
2018-12-11T00:50:53.884Z,4.20
2018-12-11T00:53:22.884Z,4.30
2018-12-11T00:55:51.082Z,4.30
2018-12-11T00:58:19.330Z,4.30
2018-12-11T01:00:47.560Z,4.20
2018-12-11T01:03:15.757Z,4.20
2018-12-11T01:05:43.978Z,4.30
2018-12-11T01:08:12.185Z,4.30
2018-12-11T01:10:40.453Z,4.30
2018-12-11T01:13:08.689Z,4.30
2018-12-11T01:15:36.911Z,4.30
2018-12-11T01:18:05.163Z,4.30
2018-12-11T01:20:33.376Z,4.30
2018-12-11T01:23:01.598Z,4.30
2018-12-11T01:25:29.818Z,4.30
2018-12-11T01:27:58.084Z,4.30
2018-12-11T01:30:26.336Z,4.30
2018-12-11T01:32:54.618Z,4.30
2018-12-11T01:35:22.857Z,4.30
2018-12-11T01:37:51.113Z,4.30
2018-12-11T01:40:19.333Z,4.30
2018-12-11T01:42:47.585Z,4.20
2018-12-11T01:45:15.785Z,4.10
2018-12-11T01:47:44.000Z,4.10
2018-12-11T01:50:12.239Z,4.20
2018-12-11T01:52:40.456Z,4.20
2018-12-11T01:55:08.702Z,4.30
2018-12-11T01:57:36.975Z,4.30
2018-12-11T02:00:05.230Z,4.20
2018-12-11T02:02:34.231Z,4.30
2018-12-11T02:05:02.486Z,4.30
2018-12-11T02:07:30.699Z,4.30
2018-12-11T02:09:58.953Z,4.40
2018-12-11T02:12:27.995Z,4.30
2018-12-11T02:14:56.241Z,4.30
2018-12-11T02:17:24.537Z,4.30
2018-12-11T02:19:52.693Z,4.30
2018-12-11T02:22:20.943Z,4.40
2018-12-11T02:24:49.179Z,4.40
2018-12-11T02:27:17.426Z,4.40
2018-12-11T02:29:45.667Z,4.40
2018-12-11T02:32:13.924Z,4.40
2018-12-11T02:34:42.166Z,4.30
2018-12-11T02:37:10.395Z,4.30
2018-12-11T02:39:39.409Z,4.30
2018-12-11T02:42:08.417Z,4.30
2018-12-11T02:44:36.670Z,4.30
2018-12-11T02:47:05.640Z,4.30
2018-12-11T02:49:33.872Z,4.30
2018-12-11T02:52:02.324Z,4.40
2018-12-11T02:54:30.632Z,4.40
2018-12-11T02:56:58.884Z,4.30
2018-12-11T02:59:27.886Z,4.30
2018-12-11T03:01:56.092Z,4.30
2018-12-11T03:04:24.331Z,4.40
2018-12-11T03:06:53.339Z,4.30
2018-12-11T03:09:21.573Z,4.20
2018-12-11T03:11:49.796Z,4.30
2018-12-11T03:14:18.052Z,4.30
2018-12-11T03:16:47.078Z,4.40
2018-12-11T03:19:15.321Z,4.40
2018-12-11T03:21:44.331Z,4.30
2018-12-11T03:24:13.357Z,4.30
2018-12-11T03:26:41.864Z,4.30
2018-12-11T03:29:10.106Z,4.40
2018-12-11T03:31:38.389Z,4.40
2018-12-11T03:34:06.624Z,4.40
2018-12-11T03:36:35.668Z,4.50
2018-12-11T03:39:03.918Z,4.50
2018-12-11T03:41:32.152Z,4.40
2018-12-11T03:44:00.370Z,4.40
2018-12-11T03:46:28.582Z,4.50
2018-12-11T03:48:56.800Z,4.50
2018-12-11T03:51:25.824Z,4.50
2018-12-11T03:53:54.076Z,4.50
2018-12-11T03:56:23.075Z,4.40
2018-12-11T03:58:51.316Z,4.40
2018-12-11T04:01:19.567Z,4.50
2018-12-11T04:03:47.826Z,4.30
2018-12-11T04:06:16.065Z,4.20
2018-12-11T04:08:44.350Z,4.30
2018-12-11T04:11:13.424Z,4.30
2018-12-11T04:13:41.635Z,4.20
2018-12-11T04:16:09.841Z,4.20
2018-12-11T04:18:38.080Z,4.20
2018-12-11T04:21:07.117Z,4.20
2018-12-11T04:23:35.346Z,4.20
2018-12-11T04:26:04.377Z,4.20
2018-12-11T04:28:32.613Z,4.20
2018-12-11T04:31:01.612Z,4.10
2018-12-11T04:33:30.587Z,4.10
2018-12-11T04:35:58.837Z,4.10
2018-12-11T04:38:27.121Z,4.20
2018-12-11T04:40:55.317Z,4.20
2018-12-11T04:43:23.558Z,4.10
2018-12-11T04:45:51.808Z,4.20
2018-12-11T04:48:20.067Z,4.20
2018-12-11T04:50:49.029Z,4.10
2018-12-11T04:53:17.263Z,4.10
2018-12-11T04:55:45.515Z,4.20
2018-12-11T04:58:14.483Z,4.20
2018-12-11T05:00:42.713Z,4.20
2018-12-11T05:03:10.933Z,4.20
2018-12-11T05:05:39.164Z,4.30
2018-12-11T05:08:07.415Z,4.20
2018-12-11T05:10:36.497Z,4.10
2018-12-11T05:13:04.749Z,4.20
2018-12-11T05:15:32.985Z,4.10
2018-12-11T05:18:01.291Z,4.00
2018-12-11T05:20:29.525Z,3.90
2018-12-11T05:22:57.799Z,3.80
2018-12-11T05:25:25.967Z,3.80
2018-12-11T05:27:55.000Z,3.90
2018-12-11T05:30:23.211Z,3.90
2018-12-11T05:32:51.461Z,4.00
2018-12-11T05:35:19.719Z,4.00
2018-12-11T05:37:47.958Z,4.00
2018-12-11T05:40:16.179Z,4.00
2018-12-11T05:42:44.417Z,4.20
2018-12-11T05:45:13.445Z,4.20
2018-12-11T05:47:41.649Z,4.20
2018-12-11T05:50:09.962Z,4.20
2018-12-11T05:52:38.964Z,4.20
2018-12-11T05:55:07.940Z,4.20
2018-12-11T05:57:36.164Z,4.20
2018-12-11T06:00:04.392Z,4.20
2018-12-11T06:02:32.598Z,4.20
2018-12-11T06:05:00.800Z,4.30
2018-12-11T06:07:29.109Z,4.30
2018-12-11T06:09:58.073Z,4.30
2018-12-11T06:12:26.287Z,4.30
2018-12-11T06:14:55.328Z,4.30
2018-12-11T06:17:23.568Z,4.30
2018-12-11T06:19:51.788Z,4.30
2018-12-11T06:22:20.007Z,4.30
2018-12-11T06:24:48.281Z,4.40
2018-12-11T06:27:16.548Z,4.50
2018-12-11T06:29:44.827Z,4.50
2018-12-11T06:32:13.036Z,4.50
2018-12-11T06:34:42.069Z,4.50
2018-12-11T06:37:10.328Z,4.50
2018-12-11T06:39:38.577Z,4.60
2018-12-11T06:42:07.583Z,4.50
2018-12-11T06:44:36.585Z,4.50
2018-12-11T06:47:04.840Z,4.50
2018-12-11T06:49:33.864Z,4.40
2018-12-11T06:52:02.123Z,4.40
2018-12-11T06:54:31.140Z,4.30
2018-12-11T06:56:59.392Z,4.30
2018-12-11T06:59:28.391Z,4.30
2018-12-11T07:01:56.648Z,4.30
2018-12-11T07:04:24.880Z,4.40
2018-12-11T07:06:53.078Z,4.40
2018-12-11T07:09:21.334Z,4.40
2018-12-11T07:11:49.554Z,4.40
2018-12-11T07:14:18.606Z,4.40
2018-12-11T07:16:46.868Z,4.40
2018-12-11T07:19:15.106Z,4.40
2018-12-11T07:21:43.320Z,4.40
2018-12-11T07:24:11.526Z,4.30
2018-12-11T07:26:39.752Z,4.30
2018-12-11T07:29:07.953Z,4.20
2018-12-11T07:31:36.222Z,4.20
2018-12-11T07:34:04.418Z,4.20
2018-12-11T07:36:32.681Z,4.20
2018-12-11T07:39:00.894Z,4.30
2018-12-11T07:41:29.167Z,4.30
2018-12-11T07:43:57.405Z,4.20
2018-12-11T07:46:25.719Z,3.90
2018-12-11T07:48:53.905Z,4.10
2018-12-11T07:51:22.147Z,3.90
2018-12-11T07:53:50.405Z,4.00
2018-12-11T07:56:18.651Z,3.90
2018-12-11T07:58:47.671Z,3.90
2018-12-11T08:01:15.930Z,3.90
2018-12-11T08:03:44.899Z,4.00
2018-12-11T08:06:13.116Z,4.00
2018-12-11T08:08:41.340Z,4.20
2018-12-11T08:11:09.538Z,4.20
2018-12-11T08:13:38.542Z,4.20
2018-12-11T08:16:07.493Z,4.10
2018-12-11T08:18:35.706Z,4.10
2018-12-11T08:21:04.679Z,4.30
2018-12-11T08:23:32.896Z,4.20
2018-12-11T08:26:01.155Z,4.20
2018-12-11T08:28:30.133Z,4.20
2018-12-11T08:30:58.376Z,4.20
2018-12-11T08:33:26.646Z,4.20
2018-12-11T08:35:54.859Z,4.20
2018-12-11T08:38:23.136Z,4.20
2018-12-11T08:40:51.328Z,4.20
2018-12-11T08:43:20.334Z,4.20
2018-12-11T08:45:49.308Z,4.20
2018-12-11T08:48:18.320Z,4.30
2018-12-11T08:50:47.314Z,4.30
2018-12-11T08:53:16.320Z,4.40
2018-12-11T08:55:44.540Z,4.40
2018-12-11T08:58:12.757Z,4.40
2018-12-11T09:00:41.749Z,4.50
2018-12-11T09:03:10.760Z,4.50
2018-12-11T09:05:39.036Z,4.50
2018-12-11T09:08:08.074Z,4.60
2018-12-11T09:10:36.326Z,4.70
2018-12-11T09:13:04.576Z,4.50
2018-12-11T09:15:33.564Z,4.70
2018-12-11T09:18:02.559Z,4.70
2018-12-11T09:20:30.752Z,4.70
2018-12-11T09:22:58.996Z,4.70
2018-12-11T09:25:27.259Z,4.60
2018-12-11T09:27:55.502Z,4.80
2018-12-11T09:30:23.733Z,4.80
2018-12-11T09:32:52.744Z,4.90
2018-12-11T09:35:21.017Z,4.90
2018-12-11T09:37:50.022Z,4.80
2018-12-11T09:40:24.364Z,4.80
2018-12-11T09:42:46.492Z,4.80
2018-12-11T09:45:14.709Z,4.80
2018-12-11T09:47:42.912Z,4.90
2018-12-11T09:50:11.885Z,4.90
2018-12-11T09:52:40.526Z,4.90
2018-12-11T09:55:08.732Z,4.90
2018-12-11T09:57:36.952Z,5.00
2018-12-11T10:00:05.171Z,5.00
2018-12-11T10:02:33.428Z,5.00
2018-12-11T10:05:01.651Z,5.00
2018-12-11T10:07:29.904Z,5.10
2018-12-11T10:09:58.107Z,5.00
2018-12-11T10:12:27.102Z,5.00
2018-12-11T10:14:55.367Z,5.00
2018-12-11T10:17:23.581Z,5.00
2018-12-11T10:19:51.790Z,5.00
2018-12-11T10:22:20.014Z,5.10
2018-12-11T10:24:48.998Z,4.90
2018-12-11T10:27:17.235Z,5.00
2018-12-11T10:29:45.492Z,5.10
2018-12-11T10:32:13.705Z,5.10
2018-12-11T10:34:41.960Z,5.10
2018-12-11T10:37:10.164Z,5.20
2018-12-11T10:39:38.391Z,5.20
2018-12-11T10:42:06.601Z,5.10
2018-12-11T10:44:34.837Z,5.00
2018-12-11T10:47:03.301Z,5.10
2018-12-11T10:49:32.288Z,5.00
2018-12-11T10:52:01.264Z,5.10
2018-12-11T10:54:29.501Z,5.10
2018-12-11T10:56:57.764Z,5.20
2018-12-11T10:59:26.747Z,5.10
2018-12-11T11:01:54.993Z,5.20
2018-12-11T11:04:23.219Z,5.20
2018-12-11T11:06:51.479Z,5.30
2018-12-11T11:09:20.482Z,5.40
2018-12-11T11:11:48.743Z,5.40
2018-12-11T11:14:17.741Z,5.40
2018-12-11T11:16:45.955Z,5.40
2018-12-11T11:19:14.225Z,5.50
2018-12-11T11:21:42.439Z,5.40
2018-12-11T11:24:10.659Z,5.30
2018-12-11T11:26:38.877Z,5.30
2018-12-11T11:29:07.104Z,5.30
2018-12-11T11:31:36.131Z,5.30
2018-12-11T11:34:04.378Z,5.30
2018-12-11T11:36:32.594Z,5.40
2018-12-11T11:39:00.808Z,5.40
2018-12-11T11:41:29.861Z,5.50
2018-12-11T11:43:58.114Z,5.50
2018-12-11T11:46:26.343Z,5.50
2018-12-11T11:48:54.637Z,5.60
2018-12-11T11:51:22.841Z,5.60
2018-12-11T11:53:51.095Z,5.70
2018-12-11T11:56:20.075Z,5.80
2018-12-11T11:58:48.366Z,5.80
2018-12-11T12:01:17.372Z,5.90
2018-12-11T12:03:46.322Z,5.90
2018-12-11T12:06:14.604Z,5.80
2018-12-11T12:08:42.831Z,5.80
2018-12-11T12:11:11.186Z,5.70
2018-12-11T12:13:40.435Z,5.70
2018-12-11T12:16:08.716Z,5.70
2018-12-11T12:18:36.969Z,5.70
2018-12-11T12:21:05.232Z,5.70
2018-12-11T12:23:39.379Z,5.70
2018-12-11T12:26:08.406Z,5.70
2018-12-11T12:28:36.673Z,5.60
2018-12-11T12:31:04.920Z,5.60
2018-12-11T12:33:33.152Z,5.70
2018-12-11T12:36:02.179Z,5.70
2018-12-11T12:38:30.438Z,5.70
2018-12-11T12:40:59.407Z,5.70
2018-12-11T12:43:28.395Z,5.80
2018-12-11T12:45:56.613Z,5.80
2018-12-11T12:48:24.853Z,5.70
2018-12-11T12:50:53.114Z,5.80
2018-12-11T12:53:21.319Z,5.80
2018-12-11T12:55:50.323Z,5.70
2018-12-11T12:58:19.303Z,5.60
2018-12-11T13:00:48.295Z,5.70
2018-12-11T13:03:17.275Z,5.60
2018-12-11T13:05:45.563Z,5.70
2018-12-11T13:08:13.801Z,5.60
2018-12-11T13:10:42.080Z,5.60
2018-12-11T13:13:10.325Z,5.70
2018-12-11T13:15:38.598Z,5.70
2018-12-11T13:18:07.569Z,5.60
2018-12-11T13:20:36.601Z,5.50
2018-12-11T13:23:04.835Z,5.50
2018-12-11T13:25:33.044Z,5.60
2018-12-11T13:28:01.308Z,5.60
2018-12-11T13:30:30.301Z,5.50
2018-12-11T13:32:59.328Z,5.60
2018-12-11T13:35:27.548Z,5.60
2018-12-11T13:37:55.797Z,5.60
2018-12-11T13:40:24.842Z,5.60
2018-12-11T13:42:53.907Z,5.50
2018-12-11T13:45:22.151Z,5.50
2018-12-11T13:47:50.422Z,5.50
2018-12-11T13:50:19.367Z,5.50
2018-12-11T13:52:48.356Z,5.50
2018-12-11T13:55:16.604Z,5.50
2018-12-11T13:57:45.605Z,5.60
2018-12-11T14:00:13.803Z,5.60
2018-12-11T14:02:42.060Z,5.70
2018-12-11T14:05:10.251Z,5.60
2018-12-11T14:07:39.322Z,5.60
2018-12-11T14:10:07.562Z,5.70
2018-12-11T14:12:35.814Z,5.70
2018-12-11T14:15:04.823Z,5.70
2018-12-11T14:17:33.804Z,5.70
2018-12-11T14:20:02.820Z,5.70
2018-12-11T14:22:31.036Z,5.70
2018-12-11T14:24:59.255Z,5.70
2018-12-11T14:27:27.478Z,5.70
2018-12-11T14:29:55.702Z,5.70
2018-12-11T14:32:24.714Z,5.80
2018-12-11T14:34:52.961Z,5.80
2018-12-11T14:37:21.203Z,5.80
2018-12-11T14:39:49.485Z,5.80
2018-12-11T14:42:17.731Z,5.90
2018-12-11T14:44:45.949Z,5.80
2018-12-11T14:47:14.213Z,5.70
2018-12-11T14:49:42.473Z,5.80
2018-12-11T14:52:10.721Z,5.90
2018-12-11T14:54:39.694Z,5.90
2018-12-11T14:57:08.669Z,5.80
2018-12-11T14:59:36.954Z,5.90
2018-12-11T15:02:05.155Z,5.90
2018-12-11T15:04:33.371Z,5.90
2018-12-11T15:07:01.639Z,5.80
2018-12-11T15:09:35.631Z,5.80
2018-12-11T15:12:04.716Z,5.70
2018-12-11T15:14:33.748Z,5.70
2018-12-11T15:17:02.136Z,5.70
2018-12-11T15:19:30.427Z,5.70
2018-12-11T15:21:58.682Z,5.70
2018-12-11T15:24:26.965Z,5.70
2018-12-11T15:26:56.213Z,5.70
2018-12-11T15:29:25.388Z,5.70
2018-12-11T15:31:53.736Z,5.70
2018-12-11T15:34:21.977Z,5.70
2018-12-11T15:36:50.184Z,5.80
2018-12-11T15:39:18.411Z,5.70
2018-12-11T15:41:47.387Z,5.70
2018-12-11T15:44:15.640Z,5.70
2018-12-11T15:46:43.848Z,5.60
2018-12-11T15:49:12.125Z,5.50
2018-12-11T15:51:40.361Z,5.50
2018-12-11T15:54:08.581Z,5.50
2018-12-11T15:56:36.784Z,5.60
2018-12-11T15:59:05.076Z,5.50
2018-12-11T16:01:33.300Z,5.60
2018-12-11T16:04:01.529Z,5.60
2018-12-11T16:06:29.777Z,5.60
2018-12-11T16:08:58.758Z,5.50
2018-12-11T16:11:27.774Z,5.40
2018-12-11T16:13:56.800Z,5.40
2018-12-11T16:16:25.055Z,5.40
2018-12-11T16:18:53.272Z,5.50
2018-12-11T16:21:21.540Z,5.50
2018-12-11T16:23:49.780Z,5.50
2018-12-11T16:26:18.756Z,5.50
2018-12-11T16:28:47.742Z,5.50
2018-12-11T16:31:15.963Z,5.50
2018-12-11T16:33:44.180Z,5.50
2018-12-11T16:36:12.451Z,5.50
2018-12-11T16:38:40.701Z,5.50
2018-12-11T16:41:08.971Z,5.50
2018-12-11T16:43:37.190Z,5.40
2018-12-11T16:46:05.455Z,5.50
2018-12-11T16:48:33.696Z,5.40
2018-12-11T16:51:01.931Z,5.40
2018-12-11T16:53:30.178Z,5.50
2018-12-11T16:55:59.203Z,5.40
2018-12-11T16:58:27.443Z,5.40
2018-12-11T17:00:55.694Z,5.40
2018-12-11T17:03:23.974Z,5.40
2018-12-11T17:05:52.227Z,5.40
2018-12-11T17:08:21.207Z,5.50
2018-12-11T17:10:50.217Z,5.50
2018-12-11T17:13:19.285Z,5.50
2018-12-11T17:15:47.496Z,5.50
2018-12-11T17:18:15.717Z,5.50
2018-12-11T17:20:44.870Z,5.40
2018-12-11T17:23:13.081Z,5.40
2018-12-11T17:25:41.325Z,5.40
2018-12-11T17:28:09.587Z,5.40
2018-12-11T17:30:37.799Z,5.40
2018-12-11T17:33:06.076Z,5.30
2018-12-11T17:35:34.286Z,5.30
2018-12-11T17:38:02.552Z,5.20
2018-12-11T17:40:30.763Z,5.20
2018-12-11T17:42:59.751Z,5.20
2018-12-11T17:45:27.979Z,5.20
2018-12-11T17:47:56.235Z,5.30
2018-12-11T17:50:24.490Z,5.30
2018-12-11T17:52:53.510Z,5.30
2018-12-11T17:55:21.717Z,5.30
2018-12-11T17:57:50.693Z,5.30
2018-12-11T18:00:18.982Z,5.30
2018-12-11T18:02:47.196Z,5.30
2018-12-11T18:05:15.487Z,5.30
2018-12-11T18:07:44.458Z,5.30
2018-12-11T18:10:12.712Z,5.30
2018-12-11T18:12:40.915Z,5.10
2018-12-11T18:15:09.213Z,5.10
2018-12-11T18:17:37.413Z,5.10
2018-12-11T18:20:05.690Z,5.10
2018-12-11T18:22:33.927Z,5.10
2018-12-11T18:25:02.197Z,5.10
2018-12-11T18:27:31.376Z,5.20
2018-12-11T18:29:58.931Z,5.10
2018-12-11T18:32:27.147Z,5.10
2018-12-11T18:34:56.162Z,5.10
2018-12-11T18:37:24.385Z,5.10
2018-12-11T18:39:52.610Z,5.10
2018-12-11T18:42:21.609Z,5.20
2018-12-11T18:44:49.875Z,5.20
2018-12-11T18:47:18.914Z,5.20
2018-12-11T18:49:47.116Z,5.20
2018-12-11T18:52:15.347Z,5.10
2018-12-11T18:54:43.611Z,5.20
2018-12-11T18:57:11.874Z,5.20
2018-12-11T18:59:40.918Z,5.20
2018-12-11T19:02:09.179Z,5.10
2018-12-11T19:04:37.408Z,5.20
2018-12-11T19:07:05.654Z,5.20
2018-12-11T19:09:33.869Z,5.20
2018-12-11T19:12:02.845Z,5.20
2018-12-11T19:14:31.118Z,5.20
2018-12-11T19:16:59.327Z,5.20
2018-12-11T19:19:27.562Z,5.30
2018-12-11T19:21:55.790Z,5.30
2018-12-11T19:24:24.018Z,5.30
2018-12-11T19:26:52.231Z,5.30
2018-12-11T19:29:20.511Z,5.30
2018-12-11T19:31:49.506Z,5.30
2018-12-11T19:34:17.788Z,5.30
2018-12-11T19:36:46.776Z,5.20
2018-12-11T19:39:15.002Z,5.20
2018-12-11T19:41:43.221Z,5.30
2018-12-11T19:44:12.261Z,5.30
2018-12-11T19:46:40.526Z,5.30
2018-12-11T19:49:08.747Z,5.30
2018-12-11T19:51:37.008Z,5.30
2018-12-11T19:54:05.223Z,5.20
2018-12-11T19:56:33.509Z,5.30
2018-12-11T19:59:01.713Z,5.30
2018-12-11T20:01:30.358Z,5.30
2018-12-11T20:03:59.368Z,5.20
2018-12-11T20:06:27.641Z,5.20
2018-12-11T20:08:56.623Z,5.30
2018-12-11T20:11:25.679Z,5.20
2018-12-11T20:13:54.706Z,5.20
2018-12-11T20:16:23.008Z,5.20
2018-12-11T20:18:51.981Z,5.10
2018-12-11T20:21:21.001Z,5.20
2018-12-11T20:23:49.270Z,5.20
2018-12-11T20:26:17.485Z,5.20
2018-12-11T20:28:46.524Z,5.30
2018-12-11T20:31:15.564Z,5.20
2018-12-11T20:33:43.823Z,5.20
2018-12-11T20:36:12.112Z,5.20
2018-12-11T20:38:40.394Z,5.30
2018-12-11T20:41:08.610Z,5.30
2018-12-11T20:43:36.907Z,5.30
2018-12-11T20:46:05.951Z,5.30
2018-12-11T20:48:34.159Z,5.30
2018-12-11T20:51:02.427Z,5.30
2018-12-11T20:53:30.722Z,5.30
2018-12-11T20:55:58.931Z,5.40
2018-12-11T20:58:27.200Z,5.20
2018-12-11T21:00:56.221Z,5.30
2018-12-11T21:03:24.468Z,5.30
2018-12-11T21:05:52.705Z,5.30
2018-12-11T21:08:20.980Z,5.30
2018-12-11T21:10:49.230Z,5.40
2018-12-11T21:13:17.469Z,5.30
2018-12-11T21:15:46.441Z,5.30
2018-12-11T21:18:15.477Z,5.30
2018-12-11T21:20:43.705Z,5.30
2018-12-11T21:23:12.012Z,5.30
2018-12-11T21:25:41.016Z,5.20
2018-12-11T21:28:09.995Z,5.20
2018-12-11T21:30:39.015Z,5.20
2018-12-11T21:33:07.279Z,5.20
2018-12-11T21:35:35.488Z,5.20
2018-12-11T21:38:03.776Z,5.20
2018-12-11T21:40:32.028Z,5.30
2018-12-11T21:43:00.339Z,5.30
2018-12-11T21:45:28.581Z,5.30
2018-12-11T21:47:56.863Z,5.20
2018-12-11T21:50:25.099Z,5.30
2018-12-11T21:52:54.129Z,5.40
2018-12-11T21:55:22.347Z,5.30
2018-12-11T21:57:50.579Z,5.30
2018-12-11T22:00:18.789Z,5.20
2018-12-11T22:02:47.058Z,5.20
2018-12-11T22:05:15.288Z,5.30
2018-12-11T22:07:44.311Z,5.20
2018-12-11T22:10:12.548Z,5.20
2018-12-11T22:12:41.533Z,5.10
2018-12-11T22:15:09.803Z,5.10
2018-12-11T22:17:38.049Z,5.10
2018-12-11T22:20:06.273Z,5.10
2018-12-11T22:22:35.253Z,5.10
2018-12-11T22:25:03.502Z,5.10
2018-12-11T22:27:31.787Z,5.10
2018-12-11T22:30:00.338Z,5.10
2018-12-11T22:32:28.571Z,5.20
2018-12-11T22:34:57.612Z,5.20
2018-12-11T22:37:25.862Z,5.20
2018-12-11T22:39:54.127Z,5.20
2018-12-11T22:42:22.381Z,5.20
2018-12-11T22:44:50.595Z,5.20
2018-12-11T22:47:18.869Z,5.20
2018-12-11T22:49:47.835Z,5.30
2018-12-11T22:52:16.069Z,5.30
2018-12-11T22:54:44.284Z,5.20
2018-12-11T22:57:12.556Z,5.30
2018-12-11T22:59:40.819Z,5.30
2018-12-11T23:02:09.040Z,5.20
2018-12-11T23:04:38.056Z,5.20
2018-12-11T23:07:06.279Z,5.10
2018-12-11T23:09:34.553Z,5.10
2018-12-11T23:12:02.756Z,5.20
2018-12-11T23:14:31.782Z,5.20
2018-12-11T23:17:00.035Z,5.20
2018-12-11T23:19:29.068Z,5.30
2018-12-11T23:21:57.262Z,5.30
2018-12-11T23:24:25.543Z,5.30
2018-12-11T23:26:54.522Z,5.30
2018-12-11T23:29:22.783Z,5.30
2018-12-11T23:31:50.998Z,5.40
2018-12-11T23:34:19.224Z,5.30
2018-12-11T23:36:47.486Z,5.30
2018-12-11T23:39:16.487Z,5.40
2018-12-11T23:41:45.512Z,5.30
2018-12-11T23:44:13.747Z,5.30
2018-12-11T23:46:42.887Z,5.30
2018-12-11T23:49:11.076Z,5.30
2018-12-11T23:51:39.362Z,5.40
2018-12-11T23:54:07.594Z,5.30
2018-12-11T23:56:35.814Z,5.30
2018-12-11T23:59:04.026Z,5.20
